createdAt,value
2023-01-15T00:15:14.559Z,5.1
2023-01-15T00:25:15.563Z,4.9
2023-01-15T00:35:17.411Z,4.9
2023-01-15T00:45:20.023Z,5
2023-01-15T00:55:22.535Z,5.1
2023-01-15T01:05:24.288Z,5.3
2023-01-15T01:15:26.685Z,5.4
2023-01-15T01:25:28.712Z,5.4
2023-01-15T01:35:30.451Z,5.4
2023-01-15T01:55:35.238Z,5.6
2023-01-15T02:05:37.530Z,5.7
2023-01-15T02:15:39.296Z,5.7
2023-01-15T02:25:41.763Z,5.8
2023-01-15T02:35:43.926Z,5.8
2023-01-15T02:45:45.765Z,5.9
2023-01-15T02:55:47.874Z,5.9
2023-01-15T03:05:50.285Z,5.9
2023-01-15T03:15:52.156Z,5.9
2023-01-15T03:25:54.750Z,5.9
2023-01-15T03:35:56.900Z,5.9
2023-01-15T03:45:59.621Z,5.9
2023-01-15T04:06:04.266Z,5.9
2023-01-15T04:16:06.297Z,5.7
2023-01-15T04:26:08.649Z,5.7
2023-01-15T04:36:10.618Z,5.8
2023-01-15T04:46:12.907Z,5.7
2023-01-15T04:56:14.875Z,5.7
2023-01-15T05:06:17.468Z,5.7
2023-01-15T05:26:21.777Z,5.9
2023-01-15T05:36:24.288Z,5.8
2023-01-15T05:46:26.217Z,5.9
2023-01-15T05:56:28.582Z,5.8
2023-01-15T06:06:30.667Z,5.9
2023-01-15T06:26:34.507Z,5.9
2023-01-15T06:36:37.075Z,6
2023-01-15T06:56:41.273Z,6.1
2023-01-15T07:06:43.396Z,6
2023-01-15T07:16:46.035Z,5.6
2023-01-15T07:26:48.050Z,3.6
2023-01-15T07:36:50.041Z,3.7
2023-01-15T07:56:53.841Z,4.3
2023-01-15T08:06:55.843Z,5.1
2023-01-15T08:16:57.910Z,5.4
2023-01-15T08:26:59.696Z,5.5
2023-01-15T08:57:05.223Z,5.8
2023-01-15T09:07:07.143Z,5.8
2023-01-15T09:17:09.726Z,5.7
2023-01-15T09:27:11.726Z,5.8
2023-01-15T09:37:13.954Z,5.9
2023-01-15T10:07:19.754Z,6
2023-01-15T10:17:21.639Z,6
2023-01-15T10:27:23.903Z,6
2023-01-15T10:37:26.463Z,6.1
2023-01-15T10:47:28.681Z,6.3
2023-01-15T10:57:30.708Z,6.5
2023-01-15T11:07:32.392Z,6.5
2023-01-15T11:17:34.125Z,6.6
2023-01-15T11:27:36.615Z,6.5
2023-01-15T11:27:58.538Z,6.6
2023-01-15T11:37:45.899Z,6.7
2023-01-15T11:47:47.915Z,6.7
2023-01-15T11:57:49.693Z,6.8
2023-01-15T12:07:51.796Z,6.7
2023-01-15T12:37:58.603Z,6.7
2023-01-15T12:48:00.397Z,6.6
2023-01-15T12:58:02.986Z,7.2
2023-01-15T13:08:05.290Z,6.7
2023-01-15T13:18:07.354Z,6.6
2023-01-15T13:28:09.720Z,6.6
2023-01-15T13:38:11.970Z,6.5
2023-01-15T13:48:13.698Z,6.6
2023-01-15T13:58:16.144Z,6.6
2023-01-15T14:08:18.274Z,6.6
2023-01-15T14:38:24.791Z,6.7
2023-01-15T14:48:26.711Z,6.6
2023-01-15T15:08:31.285Z,6.5
2023-01-15T15:58:41.820Z,6.3
2023-01-15T16:28:47.882Z,6.1
2023-01-15T16:38:50.516Z,6.2
2023-01-15T16:48:52.938Z,6.3
2023-01-15T16:58:55.311Z,6.3
2023-01-15T17:08:57.179Z,6.2
2023-01-15T17:18:58.939Z,6.2
2023-01-15T17:29:01.299Z,6.2
2023-01-15T17:39:03.355Z,6.3
2023-01-15T17:49:05.191Z,6.2
2023-01-15T17:59:07.018Z,6.2
2023-01-15T18:29:13.460Z,6.3
2023-01-15T18:49:18.095Z,6.2
2023-01-15T19:09:22.550Z,6.1
2023-01-15T19:39:29.543Z,5.9
2023-01-15T20:09:35.187Z,5.9
2023-01-15T20:19:36.902Z,5.9
2023-01-15T20:29:39.439Z,5.9
2023-01-15T20:39:41.624Z,5.9
2023-01-15T20:49:43.781Z,5.9
2023-01-15T21:19:50.683Z,5.9
2023-01-15T22:40:07.798Z,5.4
2023-01-15T22:50:09.878Z,4.7
2023-01-15T23:00:11.553Z,4.4
2023-01-15T23:10:13.964Z,4.4
2023-01-15T23:20:16.393Z,4.4
2023-01-15T23:30:18.552Z,4.3
2023-01-15T23:40:20.628Z,4.3
